createdAt,value
2019-04-07T00:02:08.589Z,36.16
2019-04-07T00:04:34.278Z,36.07
2019-04-07T00:07:01.292Z,36.11
2019-04-07T00:09:27.643Z,36.14
2019-04-07T00:11:53.614Z,36.09
2019-04-07T00:14:19.744Z,36.08
2019-04-07T00:16:46.115Z,36.14
2019-04-07T00:19:12.480Z,36.07
2019-04-07T00:21:38.866Z,36.19
2019-04-07T00:24:05.710Z,36.16
2019-04-07T00:26:31.474Z,36.07
2019-04-07T00:28:57.883Z,36.08
2019-04-07T00:31:24.240Z,36.10
2019-04-07T00:33:50.607Z,36.14
2019-04-07T00:36:16.960Z,36.14
2019-04-07T00:38:43.676Z,36.02
2019-04-07T00:41:09.612Z,36.03
2019-04-07T00:43:36.367Z,36.02
2019-04-07T00:46:02.419Z,36.05
2019-04-07T00:48:28.743Z,35.99
2019-04-07T00:50:55.007Z,36.01
2019-04-07T00:53:21.335Z,36.01
2019-04-07T00:55:47.688Z,36.05
2019-04-07T00:58:14.031Z,36.03
2019-04-07T01:00:40.359Z,36.00
2019-04-07T01:03:07.263Z,35.96
2019-04-07T01:05:36.686Z,35.98
2019-04-07T01:07:59.367Z,35.98
2019-04-07T01:10:26.109Z,36.02
2019-04-07T01:12:52.181Z,35.86
2019-04-07T01:15:18.634Z,35.90
2019-04-07T01:17:44.823Z,35.91
2019-04-07T01:20:11.568Z,35.99
2019-04-07T01:22:37.556Z,35.96
2019-04-07T01:25:04.014Z,35.92
2019-04-07T01:27:30.256Z,35.85
2019-04-07T01:29:56.640Z,35.83
2019-04-07T01:32:23.998Z,35.79
2019-04-07T01:34:49.409Z,35.77
2019-04-07T01:37:16.224Z,35.86
2019-04-07T01:39:41.945Z,35.82
2019-04-07T01:42:08.333Z,35.82
2019-04-07T01:44:35.531Z,35.80
2019-04-07T01:47:01.364Z,35.79
2019-04-07T01:49:27.987Z,35.71
2019-04-07T01:51:53.792Z,35.75
2019-04-07T01:54:20.739Z,35.80
2019-04-07T01:56:46.539Z,35.79
2019-04-07T01:59:12.830Z,35.78
2019-04-07T02:01:39.180Z,35.75
2019-04-07T02:04:06.029Z,35.70
2019-04-07T02:06:32.075Z,35.77
2019-04-07T02:08:58.383Z,35.76
2019-04-07T02:11:24.779Z,35.69
2019-04-07T02:13:51.622Z,35.70
2019-04-07T02:16:18.189Z,35.73
2019-04-07T02:18:44.235Z,35.75
2019-04-07T02:21:09.967Z,35.72
2019-04-07T02:23:36.307Z,35.66
2019-04-07T02:26:02.628Z,35.76
2019-04-07T02:28:29.178Z,35.73
2019-04-07T02:30:56.148Z,35.70
2019-04-07T02:33:22.602Z,35.70
2019-04-07T02:35:48.855Z,35.65
2019-04-07T02:38:16.320Z,35.62
2019-04-07T02:40:40.800Z,35.70
2019-04-07T02:43:07.167Z,35.61
2019-04-07T02:45:34.403Z,35.67
2019-04-07T02:48:01.052Z,35.61
2019-04-07T02:50:26.280Z,35.65
2019-04-07T02:52:52.925Z,35.71
2019-04-07T02:55:19.568Z,35.72
2019-04-07T02:57:45.381Z,35.66
2019-04-07T03:00:12.033Z,35.65
2019-04-07T03:02:39.273Z,35.73
2019-04-07T03:05:05.307Z,35.60
2019-04-07T03:07:30.891Z,35.75
2019-04-07T03:09:57.260Z,35.70
2019-04-07T03:12:23.623Z,35.73
2019-04-07T03:14:50.681Z,35.71
2019-04-07T03:17:16.372Z,35.75
2019-04-07T03:19:42.799Z,35.71
2019-04-07T03:22:09.089Z,35.74
2019-04-07T03:24:35.495Z,35.68
2019-04-07T03:27:02.574Z,35.74
2019-04-07T03:29:28.211Z,35.77
2019-04-07T03:31:56.783Z,35.76
2019-04-07T03:34:23.352Z,35.73
2019-04-07T03:37:12.803Z,35.78
2019-04-07T03:39:13.672Z,35.72
2019-04-07T03:41:40.150Z,35.75
2019-04-07T03:44:07.590Z,35.86
2019-04-07T03:46:32.733Z,35.88
2019-04-07T03:48:59.078Z,36.11
2019-04-07T03:51:25.687Z,36.09
2019-04-07T03:53:52.103Z,36.12
2019-04-07T03:56:18.196Z,36.16
2019-04-07T03:58:44.588Z,36.24
2019-04-07T04:01:10.970Z,36.27
2019-04-07T04:03:37.414Z,36.22
2019-04-07T04:06:04.614Z,36.35
2019-04-07T04:08:31.414Z,36.48
2019-04-07T04:10:56.752Z,36.58
2019-04-07T04:13:23.817Z,36.55
2019-04-07T04:15:50.058Z,36.67
2019-04-07T04:18:16.218Z,36.68
2019-04-07T04:20:41.963Z,36.81
2019-04-07T04:23:08.980Z,36.79
2019-04-07T04:25:34.680Z,36.79
2019-04-07T04:28:01.219Z,37.03
2019-04-07T04:30:27.757Z,37.03
2019-04-07T04:32:54.237Z,37.04
2019-04-07T04:35:20.258Z,37.15
2019-04-07T04:37:51.406Z,37.07
2019-04-07T04:40:14.070Z,37.22
2019-04-07T04:42:39.385Z,37.28
2019-04-07T04:45:06.200Z,37.33
2019-04-07T04:47:32.789Z,37.41
2019-04-07T04:49:58.575Z,37.43
2019-04-07T04:52:24.901Z,37.50
2019-04-07T04:54:51.825Z,37.66
2019-04-07T04:57:17.813Z,37.72
2019-04-07T04:59:44.282Z,37.71
2019-04-07T05:02:10.740Z,37.76
2019-04-07T05:04:37.412Z,37.84
2019-04-07T05:07:03.414Z,37.80
2019-04-07T05:09:40.000Z,37.83
2019-04-07T05:11:56.504Z,37.94
2019-04-07T05:14:22.158Z,38.01
2019-04-07T05:16:49.132Z,38.04
2019-04-07T05:19:14.834Z,38.04
2019-04-07T05:21:41.548Z,38.06
2019-04-07T05:24:07.539Z,38.12
2019-04-07T05:26:34.501Z,38.11
2019-04-07T05:29:00.457Z,38.18
2019-04-07T05:31:26.579Z,38.28
2019-04-07T05:33:52.948Z,38.35
2019-04-07T05:36:19.274Z,38.31
2019-04-07T05:38:45.613Z,38.47
2019-04-07T05:41:11.991Z,38.46
2019-04-07T05:43:38.348Z,38.50
2019-04-07T05:46:07.085Z,38.44
2019-04-07T05:48:31.680Z,38.48
2019-04-07T05:50:59.953Z,38.48
2019-04-07T05:53:24.405Z,38.60
2019-04-07T05:55:53.815Z,38.50
2019-04-07T05:58:16.878Z,38.63
2019-04-07T06:00:45.794Z,38.60
2019-04-07T06:03:09.560Z,38.69
2019-04-07T06:05:36.779Z,38.68
2019-04-07T06:08:18.800Z,38.55
2019-04-07T06:10:29.729Z,38.71
2019-04-07T06:12:55.375Z,38.61
2019-04-07T06:15:22.299Z,38.79
2019-04-07T06:17:47.731Z,38.66
2019-04-07T06:20:15.814Z,38.76
2019-04-07T06:22:40.507Z,38.66
2019-04-07T06:25:07.030Z,38.75
2019-04-07T06:27:33.625Z,38.78
2019-04-07T06:30:00.109Z,38.80
2019-04-07T06:32:26.673Z,38.85
2019-04-07T06:34:53.025Z,38.77
2019-04-07T06:37:18.749Z,38.88
2019-04-07T06:39:47.025Z,38.81
2019-04-07T06:42:11.991Z,38.91
2019-04-07T06:44:38.445Z,39.03
2019-04-07T06:47:04.670Z,38.91
2019-04-07T06:49:30.463Z,39.08
2019-04-07T06:52:00.647Z,38.99
2019-04-07T06:54:23.230Z,39.02
2019-04-07T06:56:50.014Z,38.94
2019-04-07T06:59:16.488Z,38.95
2019-04-07T07:01:42.776Z,39.12
2019-04-07T07:04:11.134Z,39.04
2019-04-07T07:06:34.858Z,39.05
2019-04-07T07:09:01.972Z,39.02
2019-04-07T07:11:30.871Z,39.03
2019-04-07T07:13:54.112Z,39.01
2019-04-07T07:16:20.663Z,39.00
2019-04-07T07:18:47.085Z,39.03
2019-04-07T07:21:13.338Z,39.03
2019-04-07T07:23:39.671Z,39.01
2019-04-07T07:26:06.032Z,38.94
2019-04-07T07:28:32.604Z,38.99
2019-04-07T07:30:58.880Z,38.97
2019-04-07T07:33:24.831Z,39.00
2019-04-07T07:35:51.192Z,39.04
2019-04-07T07:38:18.076Z,38.96
2019-04-07T07:40:46.452Z,38.82
2019-04-07T07:43:10.338Z,38.88
2019-04-07T07:45:37.181Z,38.80
2019-04-07T07:48:03.168Z,38.79
2019-04-07T07:50:29.981Z,38.81
2019-04-07T07:52:56.179Z,38.81
2019-04-07T07:55:22.340Z,38.78
2019-04-07T07:57:49.161Z,38.80
2019-04-07T08:00:15.555Z,38.79
2019-04-07T08:02:41.223Z,38.64
2019-04-07T08:05:09.320Z,38.69
2019-04-07T08:07:34.723Z,38.69
2019-04-07T08:10:00.589Z,38.61
2019-04-07T08:12:27.185Z,38.61
2019-04-07T08:14:55.584Z,38.56
2019-04-07T08:17:19.396Z,38.63
2019-04-07T08:19:46.625Z,38.48
2019-04-07T08:22:12.093Z,38.46
2019-04-07T08:24:38.422Z,38.39
2019-04-07T08:27:05.177Z,38.37
2019-04-07T08:29:31.138Z,38.09
2019-04-07T08:31:57.675Z,38.13
2019-04-07T08:34:24.337Z,38.01
2019-04-07T08:36:50.248Z,37.99
2019-04-07T08:39:22.989Z,37.99
2019-04-07T08:41:43.531Z,37.98
2019-04-07T08:44:09.472Z,38.02
2019-04-07T08:46:40.061Z,37.95
2019-04-07T08:49:01.982Z,37.94
2019-04-07T08:51:30.801Z,37.85
2019-04-07T08:53:54.829Z,37.93
2019-04-07T08:56:24.818Z,37.90
2019-04-07T08:58:47.815Z,37.85
2019-04-07T09:01:14.280Z,37.87
2019-04-07T09:03:44.426Z,37.84
2019-04-07T09:06:07.249Z,37.74
2019-04-07T09:08:34.801Z,37.71
2019-04-07T09:10:59.392Z,37.61
2019-04-07T09:13:25.579Z,37.54
2019-04-07T09:15:52.241Z,37.64
2019-04-07T09:18:19.132Z,37.58
2019-04-07T09:20:48.079Z,37.49
2019-04-07T09:23:11.329Z,37.60
2019-04-07T09:25:39.999Z,37.42
2019-04-07T09:28:03.920Z,37.37
2019-04-07T09:30:30.783Z,37.39
2019-04-07T09:32:56.835Z,37.40
2019-04-07T09:35:25.715Z,37.29
2019-04-07T09:37:49.581Z,37.40
2019-04-07T09:40:17.288Z,37.43
2019-04-07T09:42:42.163Z,37.42
2019-04-07T09:45:10.917Z,37.36
2019-04-07T09:47:34.888Z,37.37
2019-04-07T09:50:01.679Z,37.32
2019-04-07T09:52:28.289Z,37.20
2019-04-07T09:54:55.566Z,37.18
2019-04-07T09:57:21.138Z,37.23
2019-04-07T09:59:50.744Z,37.24
2019-04-07T10:02:13.250Z,37.28
2019-04-07T10:04:45.002Z,37.09
2019-04-07T10:07:12.175Z,37.14
2019-04-07T10:09:38.516Z,37.01
2019-04-07T10:12:04.736Z,37.08
2019-04-07T10:14:30.748Z,37.01
2019-04-07T10:16:57.367Z,37.03
2019-04-07T10:19:23.059Z,37.09
2019-04-07T10:21:49.756Z,37.06
2019-04-07T10:24:16.917Z,37.01
2019-04-07T10:26:42.952Z,36.93
2019-04-07T10:29:08.432Z,36.92
2019-04-07T10:31:34.993Z,36.95
2019-04-07T10:34:01.775Z,37.18
2019-04-07T10:36:28.092Z,37.04
2019-04-07T10:38:54.120Z,37.03
2019-04-07T10:41:20.742Z,36.98
2019-04-07T10:43:46.745Z,36.97
2019-04-07T10:46:13.517Z,37.00
2019-04-07T10:48:40.028Z,36.93
2019-04-07T10:51:05.635Z,37.01
2019-04-07T10:53:33.141Z,37.07
2019-04-07T10:55:58.300Z,36.90
2019-04-07T10:58:24.825Z,36.91
2019-04-07T11:00:51.069Z,36.90
2019-04-07T11:03:17.469Z,36.92
2019-04-07T11:05:43.776Z,36.87
2019-04-07T11:08:10.561Z,36.91
2019-04-07T11:10:39.173Z,36.86
2019-04-07T11:13:03.124Z,36.87
2019-04-07T11:15:29.256Z,36.71
2019-04-07T11:17:56.016Z,36.69
2019-04-07T11:20:22.129Z,36.74
2019-04-07T11:22:48.952Z,36.76
2019-04-07T11:25:15.058Z,36.66
2019-04-07T11:27:42.085Z,36.71
2019-04-07T11:30:08.132Z,36.77
2019-04-07T11:32:34.790Z,36.88
2019-04-07T11:35:00.421Z,36.84
2019-04-07T11:37:27.472Z,36.70
2019-04-07T11:39:53.441Z,36.72
2019-04-07T11:42:19.736Z,36.74
2019-04-07T11:44:46.742Z,36.65
2019-04-07T11:47:12.207Z,36.67
2019-04-07T11:49:41.421Z,36.60
2019-04-07T11:52:04.853Z,36.63
2019-04-07T11:54:31.225Z,36.58
2019-04-07T11:56:57.556Z,36.51
2019-04-07T11:59:23.967Z,36.58
2019-04-07T12:01:51.008Z,36.41
2019-04-07T12:04:17.343Z,36.25
2019-04-07T12:06:46.572Z,36.34
2019-04-07T12:09:09.259Z,36.47
2019-04-07T12:11:36.293Z,36.52
2019-04-07T12:14:02.239Z,36.50
2019-04-07T12:16:29.711Z,36.54
2019-04-07T12:18:55.492Z,36.52
2019-04-07T12:21:23.228Z,36.33
2019-04-07T12:23:52.048Z,36.46
2019-04-07T12:26:14.101Z,36.39
2019-04-07T12:28:42.943Z,36.51
2019-04-07T12:31:10.211Z,36.44
2019-04-07T12:33:38.535Z,36.29
2019-04-07T12:36:02.042Z,36.42
2019-04-07T12:38:28.313Z,36.47
2019-04-07T12:41:09.959Z,36.44
2019-04-07T12:43:21.790Z,36.41
2019-04-07T12:45:48.150Z,36.47
2019-04-07T12:48:14.516Z,36.41
2019-04-07T12:50:42.482Z,36.35
2019-04-07T12:53:07.193Z,36.32
2019-04-07T12:55:33.368Z,36.33
2019-04-07T12:57:59.896Z,36.31
2019-04-07T13:00:26.102Z,36.48
2019-04-07T13:02:54.360Z,36.48
2019-04-07T13:05:19.707Z,36.54
2019-04-07T13:07:48.433Z,36.45
2019-04-07T13:10:11.947Z,36.47
2019-04-07T13:12:38.757Z,36.48
2019-04-07T13:15:05.474Z,36.49
2019-04-07T13:17:34.591Z,36.50
2019-04-07T13:19:58.659Z,36.47
2019-04-07T13:22:23.945Z,36.51
2019-04-07T13:24:50.978Z,36.37
2019-04-07T13:27:16.915Z,36.38
2019-04-07T13:29:43.347Z,36.48
2019-04-07T13:32:09.526Z,36.45
2019-04-07T13:34:35.959Z,36.51
2019-04-07T13:37:02.415Z,36.47
2019-04-07T13:39:29.198Z,36.45
2019-04-07T13:41:56.339Z,36.45
2019-04-07T13:44:21.826Z,36.41
2019-04-07T13:46:47.977Z,36.46
2019-04-07T13:49:14.962Z,36.46
2019-04-07T13:51:43.886Z,36.47
2019-04-07T13:54:07.989Z,36.55
2019-04-07T13:56:34.266Z,36.59
2019-04-07T13:58:59.974Z,36.56
2019-04-07T14:01:26.772Z,36.53
2019-04-07T14:03:57.095Z,36.60
2019-04-07T14:06:19.452Z,36.62
2019-04-07T14:08:45.958Z,36.80
2019-04-07T14:11:12.251Z,36.67
2019-04-07T14:13:41.411Z,36.55
2019-04-07T14:16:07.435Z,36.71
2019-04-07T14:18:33.502Z,36.59
2019-04-07T14:21:00.468Z,36.69
2019-04-07T14:23:26.290Z,36.60
2019-04-07T14:25:53.760Z,36.65
2019-04-07T14:28:19.091Z,36.50
2019-04-07T14:30:45.588Z,36.53
2019-04-07T14:33:12.238Z,36.66
2019-04-07T14:35:38.956Z,36.61
2019-04-07T14:38:04.835Z,36.58
2019-04-07T14:40:31.080Z,36.60
2019-04-07T14:42:58.201Z,36.69
2019-04-07T14:45:24.313Z,36.56
2019-04-07T14:47:50.314Z,36.58
2019-04-07T14:50:16.706Z,36.59
2019-04-07T14:52:43.096Z,36.59
2019-04-07T14:55:09.483Z,36.56
2019-04-07T14:57:39.068Z,36.62
2019-04-07T15:00:02.606Z,36.61
2019-04-07T15:02:29.114Z,36.64
2019-04-07T15:04:55.061Z,36.62
2019-04-07T15:07:21.598Z,36.64
2019-04-07T15:09:48.082Z,36.69
2019-04-07T15:12:20.262Z,36.61
2019-04-07T15:14:41.572Z,36.69
2019-04-07T15:17:07.788Z,36.63
2019-04-07T15:19:34.143Z,36.59
2019-04-07T15:22:02.371Z,36.62
2019-04-07T15:24:26.332Z,36.65
2019-04-07T15:26:53.054Z,36.63
2019-04-07T15:29:19.891Z,36.70
2019-04-07T15:31:48.957Z,36.67
2019-04-07T15:34:14.141Z,36.60
2019-04-07T15:36:39.453Z,36.63
2019-04-07T15:39:05.236Z,36.58
2019-04-07T15:41:31.419Z,36.68
2019-04-07T15:43:58.493Z,36.71
2019-04-07T15:46:24.238Z,36.77
2019-04-07T15:48:54.286Z,36.76
2019-04-07T15:51:17.591Z,36.71
2019-04-07T15:53:48.456Z,36.85
2019-04-07T15:56:13.104Z,36.65
2019-04-07T15:58:36.171Z,36.75
2019-04-07T16:01:05.910Z,36.75
2019-04-07T16:03:29.812Z,36.78
2019-04-07T16:05:55.575Z,36.78
2019-04-07T16:08:21.697Z,36.88
2019-04-07T16:10:48.133Z,36.88
2019-04-07T16:13:15.244Z,36.90
2019-04-07T16:15:44.034Z,36.89
2019-04-07T16:18:08.598Z,36.90
2019-04-07T16:20:39.495Z,37.00
2019-04-07T16:23:00.059Z,36.87
2019-04-07T16:25:28.157Z,36.92
2019-04-07T16:27:52.795Z,36.97
2019-04-07T16:30:20.292Z,37.00
2019-04-07T16:32:45.655Z,36.96
2019-04-07T16:35:15.589Z,36.92
2019-04-07T16:37:39.125Z,37.04
2019-04-07T16:40:08.707Z,37.01
2019-04-07T16:42:31.420Z,36.97
2019-04-07T16:44:58.274Z,36.96
2019-04-07T16:47:26.287Z,37.03
2019-04-07T16:49:50.670Z,37.08
2019-04-07T16:52:17.012Z,36.97
2019-04-07T16:54:44.430Z,37.12
2019-04-07T16:57:10.525Z,37.05
2019-04-07T16:59:36.740Z,37.04
2019-04-07T17:02:02.701Z,37.11
2019-04-07T17:04:29.971Z,37.14
2019-04-07T17:07:03.124Z,37.07
2019-04-07T17:09:24.725Z,37.23
2019-04-07T17:11:48.282Z,37.09
2019-04-07T17:14:14.650Z,37.21
2019-04-07T17:16:44.157Z,37.21
2019-04-07T17:19:07.631Z,37.25
2019-04-07T17:21:33.836Z,37.27
2019-04-07T17:24:00.273Z,37.27
2019-04-07T17:26:27.511Z,37.40
2019-04-07T17:28:55.589Z,37.29
2019-04-07T17:31:19.492Z,37.34
2019-04-07T17:33:46.909Z,37.35
2019-04-07T17:36:15.357Z,37.43
2019-04-07T17:38:38.724Z,37.36
2019-04-07T17:41:07.878Z,37.35
2019-04-07T17:43:40.726Z,37.51
2019-04-07T17:45:58.326Z,37.48
2019-04-07T17:48:24.432Z,37.41
2019-04-07T17:50:50.658Z,37.49
2019-04-07T17:53:17.443Z,37.45
2019-04-07T17:55:44.180Z,37.55
2019-04-07T17:58:10.207Z,37.49
2019-04-07T18:00:37.352Z,37.58
2019-04-07T18:03:07.577Z,37.59
2019-04-07T18:05:29.458Z,37.58
2019-04-07T18:07:56.502Z,37.66
2019-04-07T18:10:23.756Z,37.65
2019-04-07T18:12:49.888Z,37.67
2019-04-07T18:15:17.496Z,37.72
2019-04-07T18:17:44.463Z,37.67
2019-04-07T18:20:09.022Z,37.73
2019-04-07T18:22:34.735Z,37.70
2019-04-07T18:25:02.795Z,37.75
2019-04-07T18:27:26.948Z,37.70
2019-04-07T18:29:53.895Z,37.74
2019-04-07T18:32:20.729Z,37.76
2019-04-07T18:34:46.259Z,37.78
2019-04-07T18:37:12.922Z,37.75
2019-04-07T18:39:39.775Z,37.84
2019-04-07T18:42:10.287Z,37.79
2019-04-07T18:44:35.311Z,37.78
2019-04-07T18:46:58.509Z,37.87
2019-04-07T18:49:24.701Z,37.78
2019-04-07T18:51:51.820Z,37.80
2019-04-07T18:54:17.445Z,37.84
2019-04-07T18:56:44.073Z,37.95
2019-04-07T18:59:10.259Z,37.96
2019-04-07T19:01:39.449Z,37.88
2019-04-07T19:04:03.008Z,37.92
2019-04-07T19:06:30.118Z,37.91
2019-04-07T19:08:58.896Z,37.94
2019-04-07T19:11:26.129Z,37.95
2019-04-07T19:13:59.424Z,37.95
2019-04-07T19:16:18.987Z,37.98
2019-04-07T19:18:42.358Z,37.95
2019-04-07T19:21:11.019Z,37.99
2019-04-07T19:23:34.409Z,37.99
2019-04-07T19:26:00.961Z,38.04
2019-04-07T19:28:26.754Z,38.01
2019-04-07T19:30:53.090Z,38.09
2019-04-07T19:33:19.474Z,38.08
2019-04-07T19:35:45.844Z,38.02
2019-04-07T19:38:12.327Z,38.11
2019-04-07T19:40:38.767Z,38.15
2019-04-07T19:43:05.848Z,38.07
2019-04-07T19:45:31.456Z,38.00
2019-04-07T19:47:58.179Z,37.99
2019-04-07T19:50:24.157Z,37.89
2019-04-07T19:52:50.758Z,37.81
2019-04-07T19:55:19.870Z,37.81
2019-04-07T19:57:43.530Z,37.73
2019-04-07T20:00:16.166Z,37.74
2019-04-07T20:02:38.934Z,37.75
2019-04-07T20:05:02.709Z,37.65
2019-04-07T20:07:30.515Z,37.62
2019-04-07T20:09:55.350Z,37.56
2019-04-07T20:12:21.808Z,37.63
2019-04-07T20:14:55.504Z,37.56
2019-04-07T20:17:19.016Z,37.55
2019-04-07T20:19:41.412Z,37.48
2019-04-07T20:22:07.072Z,37.55
2019-04-07T20:24:36.665Z,37.51
2019-04-07T20:26:59.721Z,37.47
2019-04-07T20:29:26.048Z,37.49
2019-04-07T20:31:53.477Z,37.50
2019-04-07T20:34:18.761Z,37.46
2019-04-07T20:36:45.089Z,37.40
2019-04-07T20:39:11.521Z,37.48
2019-04-07T20:41:38.002Z,37.55
2019-04-07T20:44:04.144Z,37.40
2019-04-07T20:46:30.448Z,37.38
2019-04-07T20:48:56.823Z,37.47
2019-04-07T20:51:23.164Z,37.41
2019-04-07T20:53:49.528Z,37.45
2019-04-07T20:56:16.561Z,37.46
2019-04-07T20:58:49.557Z,37.40
2019-04-07T21:01:11.256Z,37.44
2019-04-07T21:03:35.065Z,37.50
2019-04-07T21:06:02.092Z,37.45
2019-04-07T21:08:30.245Z,37.53
2019-04-07T21:10:54.224Z,37.52
2019-04-07T21:13:20.556Z,37.51
2019-04-07T21:15:47.730Z,37.50
2019-04-07T21:18:13.217Z,37.49
2019-04-07T21:20:39.549Z,37.52
2019-04-07T21:23:05.908Z,37.51
2019-04-07T21:25:32.246Z,37.52
2019-04-07T21:27:58.599Z,37.56
2019-04-07T21:30:24.979Z,37.58
2019-04-07T21:32:52.644Z,37.53
2019-04-07T21:35:17.630Z,37.52
2019-04-07T21:37:46.804Z,37.53
2019-04-07T21:40:10.423Z,37.52
2019-04-07T21:42:36.759Z,37.55
2019-04-07T21:45:05.743Z,37.50
2019-04-07T21:47:29.419Z,37.70
2019-04-07T21:49:55.787Z,37.56
2019-04-07T21:52:23.345Z,37.60
2019-04-07T21:54:48.437Z,37.58
2019-04-07T21:57:15.140Z,37.59
2019-04-07T21:59:41.131Z,37.58
2019-04-07T22:02:11.433Z,37.63
2019-04-07T22:04:34.055Z,37.62
2019-04-07T22:07:00.238Z,37.63
2019-04-07T22:09:26.832Z,37.59
2019-04-07T22:11:54.592Z,37.71
2019-04-07T22:14:19.377Z,37.65
2019-04-07T22:16:45.705Z,37.70
2019-04-07T22:19:14.865Z,37.69
2019-04-07T22:21:38.426Z,37.70
2019-04-07T22:24:04.964Z,37.71
2019-04-07T22:26:31.680Z,37.70
2019-04-07T22:29:01.265Z,37.68
2019-04-07T22:31:24.819Z,37.78
2019-04-07T22:33:50.920Z,37.70
2019-04-07T22:36:16.735Z,37.78
2019-04-07T22:38:43.238Z,37.75
2019-04-07T22:41:10.068Z,37.82
2019-04-07T22:43:35.583Z,37.71
2019-04-07T22:46:09.780Z,37.85
2019-04-07T22:48:29.440Z,37.76
2019-04-07T22:50:54.787Z,37.85
2019-04-07T22:53:22.431Z,37.85
2019-04-07T22:55:48.530Z,37.93
2019-04-07T22:58:13.971Z,37.86
2019-04-07T23:00:40.363Z,37.94
2019-04-07T23:03:06.675Z,37.96
2019-04-07T23:05:33.753Z,37.90
2019-04-07T23:07:59.882Z,37.86
2019-04-07T23:10:25.716Z,37.85
2019-04-07T23:12:52.193Z,37.93
2019-04-07T23:15:18.711Z,37.86
2019-04-07T23:17:44.841Z,37.96
2019-04-07T23:20:11.195Z,38.03
2019-04-07T23:22:38.298Z,37.93
2019-04-07T23:25:04.093Z,37.92
2019-04-07T23:27:30.435Z,37.92
2019-04-07T23:29:56.986Z,37.98
2019-04-07T23:32:23.995Z,37.92
2019-04-07T23:34:49.895Z,37.97
2019-04-07T23:37:16.550Z,37.99
2019-04-07T23:39:42.151Z,38.01
2019-04-07T23:42:09.090Z,38.01
2019-04-07T23:44:35.248Z,37.97
2019-04-07T23:47:01.212Z,38.01
2019-04-07T23:49:27.955Z,38.00
2019-04-07T23:51:53.977Z,38.01
2019-04-07T23:54:20.315Z,38.04
2019-04-07T23:56:46.647Z,38.05
2019-04-07T23:59:13.032Z,38.05
